sensor_id;sensor_type;location;lat;lon;timestamp;P1;durP1;ratioP1;P2;durP2;ratioP2
25279;SDS011;13225;47.804;12.116;2023-07-08T00:00:21;12.13;;;6.57;;
25279;SDS011;13225;47.804;12.116;2023-07-08T00:02:48;12.18;;;6.85;;
25279;SDS011;13225;47.804;12.116;2023-07-08T00:05:15;14.57;;;6.85;;
25279;SDS011;13225;47.804;12.116;2023-07-08T00:07:42;13.57;;;6.68;;
25279;SDS011;13225;47.804;12.116;2023-07-08T00:10:12;15.85;;;7.55;;
25279;SDS011;13225;47.804;12.116;2023-07-08T00:12:46;14.55;;;6.72;;
25279;SDS011;13225;47.804;12.116;2023-07-08T00:15:14;11.40;;;6.45;;
25279;SDS011;13225;47.804;12.116;2023-07-08T00:17:41;13.00;;;7.38;;
25279;SDS011;13225;47.804;12.116;2023-07-08T00:20:09;14.23;;;7.15;;
25279;SDS011;13225;47.804;12.116;2023-07-08T00:22:42;12.18;;;7.10;;
25279;SDS011;13225;47.804;12.116;2023-07-08T00:25:11;16.10;;;6.68;;
25279;SDS011;13225;47.804;12.116;2023-07-08T00:27:40;12.55;;;6.38;;
25279;SDS011;13225;47.804;12.116;2023-07-08T00:30:22;12.95;;;7.13;;
25279;SDS011;13225;47.804;12.116;2023-07-08T00:32:50;14.95;;;7.20;;
25279;SDS011;13225;47.804;12.116;2023-07-08T00:35:26;13.05;;;6.97;;
25279;SDS011;13225;47.804;12.116;2023-07-08T00:38:27;13.55;;;7.32;;
25279;SDS011;13225;47.804;12.116;2023-07-08T00:43:38;11.73;;;7.20;;
25279;SDS011;13225;47.804;12.116;2023-07-08T00:46:16;15.43;;;7.40;;
25279;SDS011;13225;47.804;12.116;2023-07-08T00:48:43;12.80;;;7.07;;
25279;SDS011;13225;47.804;12.116;2023-07-08T00:51:10;12.18;;;7.10;;
25279;SDS011;13225;47.804;12.116;2023-07-08T00:53:37;13.77;;;7.32;;
25279;SDS011;13225;47.804;12.116;2023-07-08T00:56:06;15.27;;;7.30;;
25279;SDS011;13225;47.804;12.116;2023-07-08T00:58:39;13.15;;;7.43;;
25279;SDS011;13225;47.804;12.116;2023-07-08T01:01:16;11.23;;;6.55;;
25279;SDS011;13225;47.804;12.116;2023-07-08T01:03:45;13.45;;;7.25;;
25279;SDS011;13225;47.804;12.116;2023-07-08T01:06:36;15.15;;;7.20;;
25279;SDS011;13225;47.804;12.116;2023-07-08T01:09:05;13.77;;;6.88;;
25279;SDS011;13225;47.804;12.116;2023-07-08T01:11:33;13.25;;;6.75;;
25279;SDS011;13225;47.804;12.116;2023-07-08T01:14:02;13.27;;;7.22;;
25279;SDS011;13225;47.804;12.116;2023-07-08T01:16:30;15.88;;;7.93;;
25279;SDS011;13225;47.804;12.116;2023-07-08T01:18:58;11.43;;;6.95;;
25279;SDS011;13225;47.804;12.116;2023-07-08T01:23:59;12.65;;;7.50;;
25279;SDS011;13225;47.804;12.116;2023-07-08T01:26:27;18.48;;;7.63;;
25279;SDS011;13225;47.804;12.116;2023-07-08T01:28:55;13.88;;;6.75;;
25279;SDS011;13225;47.804;12.116;2023-07-08T01:31:22;16.80;;;8.27;;
25279;SDS011;13225;47.804;12.116;2023-07-08T01:33:48;13.80;;;7.20;;
25279;SDS011;13225;47.804;12.116;2023-07-08T01:36:14;14.82;;;7.03;;
25279;SDS011;13225;47.804;12.116;2023-07-08T01:38:40;14.38;;;7.60;;
25279;SDS011;13225;47.804;12.116;2023-07-08T01:41:10;15.05;;;7.53;;
25279;SDS011;13225;47.804;12.116;2023-07-08T01:43:36;16.30;;;7.95;;
25279;SDS011;13225;47.804;12.116;2023-07-08T01:46:02;14.43;;;6.93;;
25279;SDS011;13225;47.804;12.116;2023-07-08T01:48:30;13.63;;;7.55;;
25279;SDS011;13225;47.804;12.116;2023-07-08T01:51:01;12.50;;;7.05;;
25279;SDS011;13225;47.804;12.116;2023-07-08T01:53:33;15.98;;;7.22;;
25279;SDS011;13225;47.804;12.116;2023-07-08T01:56:05;12.25;;;7.38;;
25279;SDS011;13225;47.804;12.116;2023-07-08T01:58:32;14.82;;;6.93;;
25279;SDS011;13225;47.804;12.116;2023-07-08T02:00:57;14.75;;;7.60;;
25279;SDS011;13225;47.804;12.116;2023-07-08T02:03:23;15.57;;;8.20;;
25279;SDS011;13225;47.804;12.116;2023-07-08T02:05:49;12.15;;;6.93;;
25279;SDS011;13225;47.804;12.116;2023-07-08T02:08:14;19.52;;;7.40;;
25279;SDS011;13225;47.804;12.116;2023-07-08T02:10:41;15.48;;;7.22;;
25279;SDS011;13225;47.804;12.116;2023-07-08T02:13:07;16.42;;;7.63;;
25279;SDS011;13225;47.804;12.116;2023-07-08T02:15:33;14.55;;;7.55;;
25279;SDS011;13225;47.804;12.116;2023-07-08T02:17:58;15.68;;;8.13;;
25279;SDS011;13225;47.804;12.116;2023-07-08T02:20:24;16.67;;;7.93;;
25279;SDS011;13225;47.804;12.116;2023-07-08T02:22:50;17.48;;;7.43;;
25279;SDS011;13225;47.804;12.116;2023-07-08T02:25:15;14.07;;;6.68;;
25279;SDS011;13225;47.804;12.116;2023-07-08T02:27:41;15.05;;;6.53;;
25279;SDS011;13225;47.804;12.116;2023-07-08T02:30:08;13.18;;;6.88;;
25279;SDS011;13225;47.804;12.116;2023-07-08T02:32:34;14.65;;;7.43;;
25279;SDS011;13225;47.804;12.116;2023-07-08T02:35:01;12.02;;;6.90;;
25279;SDS011;13225;47.804;12.116;2023-07-08T02:37:28;13.25;;;7.03;;
25279;SDS011;13225;47.804;12.116;2023-07-08T02:39:54;13.00;;;6.95;;
25279;SDS011;13225;47.804;12.116;2023-07-08T02:42:20;15.63;;;7.75;;
25279;SDS011;13225;47.804;12.116;2023-07-08T02:44:46;13.07;;;7.55;;
25279;SDS011;13225;47.804;12.116;2023-07-08T02:47:11;12.10;;;6.90;;
25279;SDS011;13225;47.804;12.116;2023-07-08T02:49:37;14.75;;;7.22;;
25279;SDS011;13225;47.804;12.116;2023-07-08T02:52:03;13.65;;;7.85;;
25279;SDS011;13225;47.804;12.116;2023-07-08T02:54:29;14.50;;;6.93;;
25279;SDS011;13225;47.804;12.116;2023-07-08T02:56:54;14.80;;;7.35;;
25279;SDS011;13225;47.804;12.116;2023-07-08T02:59:20;13.77;;;7.28;;
25279;SDS011;13225;47.804;12.116;2023-07-08T03:01:45;14.60;;;7.45;;
25279;SDS011;13225;47.804;12.116;2023-07-08T03:04:11;14.90;;;7.18;;
25279;SDS011;13225;47.804;12.116;2023-07-08T03:06:39;13.95;;;7.40;;
25279;SDS011;13225;47.804;12.116;2023-07-08T03:09:06;15.68;;;7.22;;
25279;SDS011;13225;47.804;12.116;2023-07-08T03:11:32;13.20;;;6.75;;
25279;SDS011;13225;47.804;12.116;2023-07-08T03:13:57;13.57;;;7.30;;
25279;SDS011;13225;47.804;12.116;2023-07-08T03:16:23;15.73;;;7.25;;
25279;SDS011;13225;47.804;12.116;2023-07-08T03:18:48;12.57;;;6.55;;
25279;SDS011;13225;47.804;12.116;2023-07-08T03:21:15;13.07;;;6.63;;
25279;SDS011;13225;47.804;12.116;2023-07-08T03:23:42;14.35;;;6.80;;
25279;SDS011;13225;47.804;12.116;2023-07-08T03:26:11;13.32;;;6.70;;
25279;SDS011;13225;47.804;12.116;2023-07-08T03:28:39;12.70;;;6.57;;
25279;SDS011;13225;47.804;12.116;2023-07-08T03:31:07;14.60;;;7.13;;
25279;SDS011;13225;47.804;12.116;2023-07-08T03:33:34;12.60;;;6.38;;
25279;SDS011;13225;47.804;12.116;2023-07-08T03:36:00;15.60;;;7.03;;
25279;SDS011;13225;47.804;12.116;2023-07-08T03:38:26;13.10;;;7.10;;
25279;SDS011;13225;47.804;12.116;2023-07-08T03:40:51;15.90;;;7.20;;
25279;SDS011;13225;47.804;12.116;2023-07-08T03:43:17;12.32;;;6.85;;
25279;SDS011;13225;47.804;12.116;2023-07-08T03:45:43;13.30;;;6.90;;
25279;SDS011;13225;47.804;12.116;2023-07-08T03:48:12;15.15;;;7.00;;
25279;SDS011;13225;47.804;12.116;2023-07-08T03:50:38;16.23;;;7.60;;
25279;SDS011;13225;47.804;12.116;2023-07-08T03:53:04;14.30;;;7.43;;
25279;SDS011;13225;47.804;12.116;2023-07-08T03:55:30;12.18;;;6.90;;
25279;SDS011;13225;47.804;12.116;2023-07-08T03:57:55;15.00;;;7.45;;
25279;SDS011;13225;47.804;12.116;2023-07-08T04:00:21;14.13;;;7.15;;
25279;SDS011;13225;47.804;12.116;2023-07-08T04:02:47;15.13;;;7.32;;
25279;SDS011;13225;47.804;12.116;2023-07-08T04:05:16;13.90;;;6.93;;
25279;SDS011;13225;47.804;12.116;2023-07-08T04:07:44;10.75;;;6.72;;
25279;SDS011;13225;47.804;12.116;2023-07-08T04:10:10;14.15;;;7.25;;
25279;SDS011;13225;47.804;12.116;2023-07-08T04:12:36;12.00;;;6.80;;
25279;SDS011;13225;47.804;12.116;2023-07-08T04:15:02;13.77;;;7.78;;
25279;SDS011;13225;47.804;12.116;2023-07-08T04:17:28;13.25;;;7.25;;
25279;SDS011;13225;47.804;12.116;2023-07-08T04:19:54;15.60;;;7.13;;
25279;SDS011;13225;47.804;12.116;2023-07-08T04:22:22;14.90;;;7.43;;
25279;SDS011;13225;47.804;12.116;2023-07-08T04:24:49;14.98;;;7.20;;
25279;SDS011;13225;47.804;12.116;2023-07-08T04:27:15;14.95;;;8.00;;
25279;SDS011;13225;47.804;12.116;2023-07-08T04:29:42;15.55;;;8.43;;
25279;SDS011;13225;47.804;12.116;2023-07-08T04:32:07;14.98;;;7.93;;
25279;SDS011;13225;47.804;12.116;2023-07-08T04:34:33;16.73;;;8.52;;
25279;SDS011;13225;47.804;12.116;2023-07-08T04:36:59;14.98;;;8.52;;
25279;SDS011;13225;47.804;12.116;2023-07-08T04:39:24;16.60;;;7.95;;
25279;SDS011;13225;47.804;12.116;2023-07-08T04:41:50;12.65;;;7.10;;
25279;SDS011;13225;47.804;12.116;2023-07-08T04:44:15;12.70;;;7.22;;
25279;SDS011;13225;47.804;12.116;2023-07-08T04:46:49;12.27;;;6.75;;
25279;SDS011;13225;47.804;12.116;2023-07-08T04:49:19;13.45;;;6.65;;
25279;SDS011;13225;47.804;12.116;2023-07-08T04:51:45;12.90;;;7.32;;
25279;SDS011;13225;47.804;12.116;2023-07-08T04:54:11;13.13;;;7.32;;
25279;SDS011;13225;47.804;12.116;2023-07-08T04:56:47;10.57;;;6.97;;
25279;SDS011;13225;47.804;12.116;2023-07-08T04:59:15;11.75;;;6.90;;
25279;SDS011;13225;47.804;12.116;2023-07-08T05:01:42;15.20;;;7.28;;
25279;SDS011;13225;47.804;12.116;2023-07-08T05:04:09;13.48;;;7.72;;
25279;SDS011;13225;47.804;12.116;2023-07-08T05:06:37;12.68;;;7.22;;
25279;SDS011;13225;47.804;12.116;2023-07-08T05:09:02;15.20;;;7.88;;
25279;SDS011;13225;47.804;12.116;2023-07-08T05:11:28;14.05;;;8.63;;
25279;SDS011;13225;47.804;12.116;2023-07-08T05:13:54;13.57;;;8.05;;
25279;SDS011;13225;47.804;12.116;2023-07-08T05:16:20;11.15;;;6.68;;
25279;SDS011;13225;47.804;12.116;2023-07-08T05:18:45;21.67;;;7.63;;
25279;SDS011;13225;47.804;12.116;2023-07-08T05:21:11;13.73;;;7.47;;
25279;SDS011;13225;47.804;12.116;2023-07-08T05:23:37;11.75;;;6.97;;
25279;SDS011;13225;47.804;12.116;2023-07-08T05:26:03;13.77;;;7.05;;
25279;SDS011;13225;47.804;12.116;2023-07-08T05:28:30;12.77;;;6.43;;
25279;SDS011;13225;47.804;12.116;2023-07-08T05:30:56;13.68;;;6.97;;
25279;SDS011;13225;47.804;12.116;2023-07-08T05:33:23;14.75;;;7.50;;
25279;SDS011;13225;47.804;12.116;2023-07-08T05:35:49;12.23;;;6.53;;
25279;SDS011;13225;47.804;12.116;2023-07-08T05:38:15;16.60;;;7.13;;
25279;SDS011;13225;47.804;12.116;2023-07-08T05:40:41;16.60;;;6.00;;
25279;SDS011;13225;47.804;12.116;2023-07-08T05:43:06;15.02;;;6.85;;
25279;SDS011;13225;47.804;12.116;2023-07-08T05:45:32;12.48;;;6.38;;
25279;SDS011;13225;47.804;12.116;2023-07-08T05:47:58;12.35;;;6.65;;
25279;SDS011;13225;47.804;12.116;2023-07-08T05:50:24;12.95;;;6.20;;
25279;SDS011;13225;47.804;12.116;2023-07-08T05:52:49;11.65;;;6.30;;
25279;SDS011;13225;47.804;12.116;2023-07-08T05:55:15;11.77;;;6.63;;
25279;SDS011;13225;47.804;12.116;2023-07-08T05:57:41;11.68;;;6.25;;
25279;SDS011;13225;47.804;12.116;2023-07-08T06:00:06;15.55;;;7.28;;
25279;SDS011;13225;47.804;12.116;2023-07-08T06:02:33;15.57;;;7.38;;
25279;SDS011;13225;47.804;12.116;2023-07-08T06:04:58;13.65;;;7.55;;
25279;SDS011;13225;47.804;12.116;2023-07-08T06:07:24;12.38;;;7.78;;
25279;SDS011;13225;47.804;12.116;2023-07-08T06:09:49;14.25;;;7.82;;
25279;SDS011;13225;47.804;12.116;2023-07-08T06:12:16;14.60;;;7.93;;
25279;SDS011;13225;47.804;12.116;2023-07-08T06:14:41;13.82;;;7.97;;
25279;SDS011;13225;47.804;12.116;2023-07-08T06:17:08;14.27;;;7.70;;
25279;SDS011;13225;47.804;12.116;2023-07-08T06:19:34;15.63;;;8.32;;
25279;SDS011;13225;47.804;12.116;2023-07-08T06:21:59;15.52;;;7.40;;
25279;SDS011;13225;47.804;12.116;2023-07-08T06:24:25;13.93;;;7.88;;
25279;SDS011;13225;47.804;12.116;2023-07-08T06:26:51;13.98;;;7.75;;
25279;SDS011;13225;47.804;12.116;2023-07-08T06:29:16;13.65;;;7.47;;
25279;SDS011;13225;47.804;12.116;2023-07-08T06:31:42;17.02;;;7.57;;
25279;SDS011;13225;47.804;12.116;2023-07-08T06:34:07;15.10;;;7.32;;
25279;SDS011;13225;47.804;12.116;2023-07-08T06:36:33;14.57;;;7.60;;
25279;SDS011;13225;47.804;12.116;2023-07-08T06:38:59;13.25;;;7.45;;
25279;SDS011;13225;47.804;12.116;2023-07-08T06:41:24;11.13;;;6.97;;
25279;SDS011;13225;47.804;12.116;2023-07-08T06:43:50;12.25;;;7.30;;
25279;SDS011;13225;47.804;12.116;2023-07-08T06:46:16;11.98;;;7.40;;
25279;SDS011;13225;47.804;12.116;2023-07-08T06:48:42;14.50;;;7.70;;
25279;SDS011;13225;47.804;12.116;2023-07-08T06:51:07;11.70;;;7.35;;
25279;SDS011;13225;47.804;12.116;2023-07-08T06:53:33;12.85;;;6.70;;
25279;SDS011;13225;47.804;12.116;2023-07-08T06:55:58;14.52;;;7.93;;
25279;SDS011;13225;47.804;12.116;2023-07-08T06:58:24;12.30;;;7.07;;
25279;SDS011;13225;47.804;12.116;2023-07-08T07:00:50;12.45;;;6.97;;
25279;SDS011;13225;47.804;12.116;2023-07-08T07:03:15;13.02;;;6.93;;
25279;SDS011;13225;47.804;12.116;2023-07-08T07:05:42;18.35;;;7.15;;
25279;SDS011;13225;47.804;12.116;2023-07-08T07:08:08;12.05;;;6.90;;
25279;SDS011;13225;47.804;12.116;2023-07-08T07:10:34;10.90;;;6.47;;
25279;SDS011;13225;47.804;12.116;2023-07-08T07:13:00;11.95;;;6.28;;
25279;SDS011;13225;47.804;12.116;2023-07-08T07:15:26;11.52;;;7.30;;
25279;SDS011;13225;47.804;12.116;2023-07-08T07:17:52;12.95;;;7.03;;
25279;SDS011;13225;47.804;12.116;2023-07-08T07:20:17;12.63;;;6.90;;
25279;SDS011;13225;47.804;12.116;2023-07-08T07:22:43;14.10;;;6.70;;
25279;SDS011;13225;47.804;12.116;2023-07-08T07:25:09;12.82;;;6.97;;
25279;SDS011;13225;47.804;12.116;2023-07-08T07:27:35;11.70;;;6.47;;
25279;SDS011;13225;47.804;12.116;2023-07-08T07:30:00;11.85;;;6.60;;
25279;SDS011;13225;47.804;12.116;2023-07-08T07:32:26;12.10;;;6.22;;
25279;SDS011;13225;47.804;12.116;2023-07-08T07:34:54;9.50;;;6.05;;
25279;SDS011;13225;47.804;12.116;2023-07-08T07:37:20;11.02;;;6.20;;
25279;SDS011;13225;47.804;12.116;2023-07-08T07:39:46;10.60;;;6.40;;
25279;SDS011;13225;47.804;12.116;2023-07-08T07:42:13;12.18;;;5.68;;
25279;SDS011;13225;47.804;12.116;2023-07-08T07:44:40;10.60;;;5.57;;
25279;SDS011;13225;47.804;12.116;2023-07-08T07:47:06;11.07;;;5.82;;
25279;SDS011;13225;47.804;12.116;2023-07-08T07:49:33;11.20;;;5.53;;
25279;SDS011;13225;47.804;12.116;2023-07-08T07:51:58;10.20;;;5.75;;
25279;SDS011;13225;47.804;12.116;2023-07-08T07:54:24;10.23;;;5.97;;
25279;SDS011;13225;47.804;12.116;2023-07-08T07:56:50;9.07;;;5.68;;
25279;SDS011;13225;47.804;12.116;2023-07-08T07:59:16;11.10;;;5.70;;
25279;SDS011;13225;47.804;12.116;2023-07-08T08:01:42;11.25;;;5.75;;
25279;SDS011;13225;47.804;12.116;2023-07-08T08:04:09;13.35;;;6.30;;
25279;SDS011;13225;47.804;12.116;2023-07-08T08:06:35;7.85;;;5.07;;
25279;SDS011;13225;47.804;12.116;2023-07-08T08:09:02;10.60;;;6.53;;
25279;SDS011;13225;47.804;12.116;2023-07-08T08:11:29;10.52;;;6.40;;
25279;SDS011;13225;47.804;12.116;2023-07-08T08:13:54;11.15;;;6.32;;
25279;SDS011;13225;47.804;12.116;2023-07-08T08:16:20;11.38;;;6.55;;
25279;SDS011;13225;47.804;12.116;2023-07-08T08:18:46;12.75;;;6.68;;
25279;SDS011;13225;47.804;12.116;2023-07-08T08:21:12;10.88;;;6.32;;
25279;SDS011;13225;47.804;12.116;2023-07-08T08:23:38;10.13;;;6.35;;
25279;SDS011;13225;47.804;12.116;2023-07-08T08:26:04;10.30;;;6.57;;
25279;SDS011;13225;47.804;12.116;2023-07-08T08:28:29;11.18;;;6.57;;
25279;SDS011;13225;47.804;12.116;2023-07-08T08:30:55;12.55;;;6.25;;
25279;SDS011;13225;47.804;12.116;2023-07-08T08:33:21;11.38;;;6.65;;
25279;SDS011;13225;47.804;12.116;2023-07-08T08:35:47;12.02;;;6.70;;
25279;SDS011;13225;47.804;12.116;2023-07-08T08:38:12;10.75;;;6.53;;
25279;SDS011;13225;47.804;12.116;2023-07-08T08:40:39;11.07;;;6.68;;
25279;SDS011;13225;47.804;12.116;2023-07-08T08:43:07;9.80;;;6.30;;
25279;SDS011;13225;47.804;12.116;2023-07-08T08:45:57;12.02;;;6.55;;
25279;SDS011;13225;47.804;12.116;2023-07-08T08:48:23;9.55;;;5.55;;
25279;SDS011;13225;47.804;12.116;2023-07-08T08:50:53;11.25;;;6.20;;
25279;SDS011;13225;47.804;12.116;2023-07-08T08:53:25;11.00;;;6.50;;
25279;SDS011;13225;47.804;12.116;2023-07-08T08:55:55;11.95;;;6.10;;
25279;SDS011;13225;47.804;12.116;2023-07-08T09:01:12;12.25;;;5.72;;
25279;SDS011;13225;47.804;12.116;2023-07-08T09:03:51;10.75;;;6.18;;
25279;SDS011;13225;47.804;12.116;2023-07-08T09:06:23;11.23;;;6.38;;
25279;SDS011;13225;47.804;12.116;2023-07-08T09:08:52;9.73;;;6.00;;
25279;SDS011;13225;47.804;12.116;2023-07-08T09:14:12;10.15;;;6.28;;
25279;SDS011;13225;47.804;12.116;2023-07-08T09:19:35;11.57;;;6.05;;
25279;SDS011;13225;47.804;12.116;2023-07-08T09:22:36;11.50;;;6.18;;
25279;SDS011;13225;47.804;12.116;2023-07-08T09:27:40;13.65;;;6.57;;
25279;SDS011;13225;47.804;12.116;2023-07-08T09:30:16;14.57;;;6.22;;
25279;SDS011;13225;47.804;12.116;2023-07-08T09:32:45;11.55;;;6.25;;
25279;SDS011;13225;47.804;12.116;2023-07-08T09:35:16;11.30;;;7.13;;
25279;SDS011;13225;47.804;12.116;2023-07-08T09:37:53;14.38;;;7.28;;
25279;SDS011;13225;47.804;12.116;2023-07-08T09:40:21;10.45;;;6.47;;
25279;SDS011;13225;47.804;12.116;2023-07-08T09:42:55;10.43;;;6.50;;
25279;SDS011;13225;47.804;12.116;2023-07-08T09:45:28;13.15;;;6.78;;
25279;SDS011;13225;47.804;12.116;2023-07-08T09:48:04;10.15;;;6.35;;
25279;SDS011;13225;47.804;12.116;2023-07-08T09:50:51;11.77;;;6.10;;
25279;SDS011;13225;47.804;12.116;2023-07-08T09:53:18;13.00;;;6.70;;
25279;SDS011;13225;47.804;12.116;2023-07-08T09:55:44;9.00;;;6.05;;
25279;SDS011;13225;47.804;12.116;2023-07-08T09:58:11;11.38;;;6.80;;
25279;SDS011;13225;47.804;12.116;2023-07-08T10:03:19;12.13;;;6.53;;
25279;SDS011;13225;47.804;12.116;2023-07-08T10:05:48;13.15;;;6.70;;
25279;SDS011;13225;47.804;12.116;2023-07-08T10:08:16;9.38;;;5.82;;
25279;SDS011;13225;47.804;12.116;2023-07-08T10:10:45;12.88;;;6.63;;
25279;SDS011;13225;47.804;12.116;2023-07-08T10:13:17;11.73;;;6.45;;
25279;SDS011;13225;47.804;12.116;2023-07-08T10:16:15;12.45;;;6.43;;
25279;SDS011;13225;47.804;12.116;2023-07-08T10:18:47;10.65;;;6.60;;
25279;SDS011;13225;47.804;12.116;2023-07-08T10:26:42;12.15;;;6.47;;
25279;SDS011;13225;47.804;12.116;2023-07-08T10:31:48;10.45;;;6.15;;
25279;SDS011;13225;47.804;12.116;2023-07-08T10:34:28;11.57;;;5.50;;
25279;SDS011;13225;47.804;12.116;2023-07-08T10:44:59;11.45;;;6.60;;
25279;SDS011;13225;47.804;12.116;2023-07-08T10:50:14;9.45;;;6.22;;
25279;SDS011;13225;47.804;12.116;2023-07-08T10:55:59;10.45;;;6.13;;
25279;SDS011;13225;47.804;12.116;2023-07-08T11:06:56;10.80;;;6.38;;
25279;SDS011;13225;47.804;12.116;2023-07-08T11:09:32;9.05;;;5.75;;
25279;SDS011;13225;47.804;12.116;2023-07-08T11:12:00;10.95;;;6.05;;
25279;SDS011;13225;47.804;12.116;2023-07-08T11:14:37;13.60;;;6.00;;
25279;SDS011;13225;47.804;12.116;2023-07-08T11:20:06;9.98;;;6.20;;
25279;SDS011;13225;47.804;12.116;2023-07-08T11:22:35;9.07;;;5.38;;
25279;SDS011;13225;47.804;12.116;2023-07-08T11:25:07;8.93;;;5.45;;
25279;SDS011;13225;47.804;12.116;2023-07-08T11:27:42;8.32;;;5.78;;
25279;SDS011;13225;47.804;12.116;2023-07-08T11:32:39;9.50;;;6.18;;
25279;SDS011;13225;47.804;12.116;2023-07-08T11:35:07;12.73;;;5.65;;
25279;SDS011;13225;47.804;12.116;2023-07-08T11:37:59;8.73;;;5.65;;
25279;SDS011;13225;47.804;12.116;2023-07-08T11:40:25;9.45;;;5.75;;
25279;SDS011;13225;47.804;12.116;2023-07-08T11:42:52;12.90;;;6.93;;
25279;SDS011;13225;47.804;12.116;2023-07-08T11:45:26;7.57;;;5.22;;
25279;SDS011;13225;47.804;12.116;2023-07-08T11:48:03;10.95;;;6.38;;
25279;SDS011;13225;47.804;12.116;2023-07-08T11:50:32;7.70;;;5.40;;
25279;SDS011;13225;47.804;12.116;2023-07-08T11:53:03;10.70;;;5.88;;
25279;SDS011;13225;47.804;12.116;2023-07-08T11:55:42;9.27;;;5.97;;
25279;SDS011;13225;47.804;12.116;2023-07-08T11:58:50;8.10;;;6.05;;
25279;SDS011;13225;47.804;12.116;2023-07-08T12:01:30;9.60;;;5.55;;
25279;SDS011;13225;47.804;12.116;2023-07-08T12:08:59;7.38;;;5.32;;
25279;SDS011;13225;47.804;12.116;2023-07-08T12:11:52;10.55;;;6.22;;
25279;SDS011;13225;47.804;12.116;2023-07-08T12:14:21;11.15;;;5.63;;
25279;SDS011;13225;47.804;12.116;2023-07-08T12:16:48;10.93;;;6.00;;
25279;SDS011;13225;47.804;12.116;2023-07-08T12:19:15;9.98;;;5.00;;
25279;SDS011;13225;47.804;12.116;2023-07-08T12:21:43;9.50;;;6.22;;
25279;SDS011;13225;47.804;12.116;2023-07-08T12:24:12;7.63;;;5.43;;
25279;SDS011;13225;47.804;12.116;2023-07-08T12:26:39;8.65;;;5.78;;
25279;SDS011;13225;47.804;12.116;2023-07-08T12:29:06;11.77;;;6.40;;
25279;SDS011;13225;47.804;12.116;2023-07-08T12:31:33;11.50;;;6.43;;
25279;SDS011;13225;47.804;12.116;2023-07-08T12:33:58;8.25;;;5.30;;
25279;SDS011;13225;47.804;12.116;2023-07-08T12:36:25;8.63;;;5.78;;
25279;SDS011;13225;47.804;12.116;2023-07-08T12:38:54;11.35;;;5.68;;
25279;SDS011;13225;47.804;12.116;2023-07-08T12:43:50;9.18;;;5.47;;
25279;SDS011;13225;47.804;12.116;2023-07-08T12:46:18;10.38;;;5.18;;
25279;SDS011;13225;47.804;12.116;2023-07-08T12:48:46;9.23;;;5.10;;
25279;SDS011;13225;47.804;12.116;2023-07-08T12:51:13;7.60;;;5.43;;
25279;SDS011;13225;47.804;12.116;2023-07-08T12:53:41;10.27;;;5.50;;
25279;SDS011;13225;47.804;12.116;2023-07-08T12:56:07;9.88;;;5.68;;
25279;SDS011;13225;47.804;12.116;2023-07-08T12:58:39;8.10;;;5.97;;
25279;SDS011;13225;47.804;12.116;2023-07-08T13:01:07;10.63;;;5.82;;
25279;SDS011;13225;47.804;12.116;2023-07-08T13:03:34;9.25;;;5.60;;
25279;SDS011;13225;47.804;12.116;2023-07-08T13:06:02;10.90;;;5.78;;
25279;SDS011;13225;47.804;12.116;2023-07-08T13:08:29;10.15;;;5.32;;
25279;SDS011;13225;47.804;12.116;2023-07-08T13:10:59;8.82;;;5.45;;
25279;SDS011;13225;47.804;12.116;2023-07-08T13:13:29;8.57;;;5.18;;
25279;SDS011;13225;47.804;12.116;2023-07-08T13:15:57;9.90;;;5.88;;
25279;SDS011;13225;47.804;12.116;2023-07-08T13:18:32;7.93;;;5.45;;
25279;SDS011;13225;47.804;12.116;2023-07-08T13:21:04;9.65;;;5.70;;
25279;SDS011;13225;47.804;12.116;2023-07-08T13:23:32;9.38;;;6.05;;
25279;SDS011;13225;47.804;12.116;2023-07-08T13:25:59;8.65;;;6.32;;
25279;SDS011;13225;47.804;12.116;2023-07-08T13:28:26;10.05;;;6.70;;
25279;SDS011;13225;47.804;12.116;2023-07-08T13:30:54;9.07;;;6.10;;
25279;SDS011;13225;47.804;12.116;2023-07-08T13:33:22;9.90;;;5.70;;
25279;SDS011;13225;47.804;12.116;2023-07-08T13:35:48;8.57;;;6.03;;
25279;SDS011;13225;47.804;12.116;2023-07-08T13:38:15;11.25;;;5.22;;
25279;SDS011;13225;47.804;12.116;2023-07-08T13:40:53;8.65;;;5.82;;
25279;SDS011;13225;47.804;12.116;2023-07-08T13:43:27;9.07;;;6.43;;
25279;SDS011;13225;47.804;12.116;2023-07-08T13:45:56;10.35;;;6.05;;
25279;SDS011;13225;47.804;12.116;2023-07-08T13:53:24;9.52;;;6.85;;
25279;SDS011;13225;47.804;12.116;2023-07-08T13:56:00;8.55;;;5.78;;
25279;SDS011;13225;47.804;12.116;2023-07-08T13:58:29;12.95;;;9.45;;
25279;SDS011;13225;47.804;12.116;2023-07-08T14:00:56;8.70;;;6.40;;
25279;SDS011;13225;47.804;12.116;2023-07-08T14:03:22;11.02;;;6.78;;
25279;SDS011;13225;47.804;12.116;2023-07-08T14:05:48;8.88;;;6.57;;
25279;SDS011;13225;47.804;12.116;2023-07-08T14:08:15;6.72;;;5.60;;
25279;SDS011;13225;47.804;12.116;2023-07-08T14:10:42;9.23;;;6.30;;
25279;SDS011;13225;47.804;12.116;2023-07-08T14:13:10;8.88;;;5.38;;
25279;SDS011;13225;47.804;12.116;2023-07-08T14:15:36;10.52;;;5.97;;
25279;SDS011;13225;47.804;12.116;2023-07-08T14:18:03;10.13;;;6.50;;
25279;SDS011;13225;47.804;12.116;2023-07-08T14:20:29;11.15;;;6.53;;
25279;SDS011;13225;47.804;12.116;2023-07-08T14:22:55;9.32;;;6.13;;
25279;SDS011;13225;47.804;12.116;2023-07-08T14:25:21;9.25;;;5.97;;
25279;SDS011;13225;47.804;12.116;2023-07-08T14:27:48;9.77;;;6.35;;
25279;SDS011;13225;47.804;12.116;2023-07-08T14:30:14;10.35;;;6.90;;
25279;SDS011;13225;47.804;12.116;2023-07-08T14:32:40;10.63;;;7.07;;
25279;SDS011;13225;47.804;12.116;2023-07-08T14:37:51;7.60;;;5.80;;
25279;SDS011;13225;47.804;12.116;2023-07-08T14:40:24;10.23;;;5.82;;
25279;SDS011;13225;47.804;12.116;2023-07-08T14:42:58;9.18;;;6.10;;
25279;SDS011;13225;47.804;12.116;2023-07-08T14:45:26;8.98;;;6.78;;
25279;SDS011;13225;47.804;12.116;2023-07-08T14:47:53;9.98;;;6.05;;
25279;SDS011;13225;47.804;12.116;2023-07-08T14:50:20;9.30;;;5.75;;
25279;SDS011;13225;47.804;12.116;2023-07-08T14:52:45;10.20;;;6.00;;
25279;SDS011;13225;47.804;12.116;2023-07-08T14:55:11;11.30;;;6.28;;
25279;SDS011;13225;47.804;12.116;2023-07-08T14:57:43;8.52;;;6.50;;
25279;SDS011;13225;47.804;12.116;2023-07-08T15:00:14;9.13;;;6.00;;
25279;SDS011;13225;47.804;12.116;2023-07-08T15:02:41;9.65;;;6.30;;
25279;SDS011;13225;47.804;12.116;2023-07-08T15:05:13;12.07;;;6.80;;
25279;SDS011;13225;47.804;12.116;2023-07-08T15:07:52;8.35;;;6.50;;
25279;SDS011;13225;47.804;12.116;2023-07-08T15:10:20;9.15;;;6.38;;
25279;SDS011;13225;47.804;12.116;2023-07-08T15:12:48;13.75;;;6.70;;
25279;SDS011;13225;47.804;12.116;2023-07-08T15:15:15;8.38;;;5.82;;
25279;SDS011;13225;47.804;12.116;2023-07-08T15:17:43;10.43;;;6.15;;
25279;SDS011;13225;47.804;12.116;2023-07-08T15:20:09;12.05;;;6.13;;
25279;SDS011;13225;47.804;12.116;2023-07-08T15:22:38;11.25;;;6.57;;
25279;SDS011;13225;47.804;12.116;2023-07-08T15:25:04;10.25;;;6.00;;
25279;SDS011;13225;47.804;12.116;2023-07-08T15:27:30;9.90;;;6.45;;
25279;SDS011;13225;47.804;12.116;2023-07-08T15:29:56;9.32;;;5.80;;
25279;SDS011;13225;47.804;12.116;2023-07-08T15:32:22;8.27;;;5.57;;
25279;SDS011;13225;47.804;12.116;2023-07-08T15:34:47;8.27;;;5.65;;
25279;SDS011;13225;47.804;12.116;2023-07-08T15:37:13;9.10;;;6.15;;
25279;SDS011;13225;47.804;12.116;2023-07-08T15:39:38;7.63;;;6.03;;